createdAt,value
2018-07-16T00:00:23.342Z,101198.72
2018-07-16T00:02:52.266Z,101203.31
2018-07-16T00:05:21.026Z,101206.89
2018-07-16T00:07:49.814Z,101200.59
2018-07-16T00:10:18.608Z,101206.22
2018-07-16T00:12:47.367Z,101205.17
2018-07-16T00:15:16.091Z,101206.53
2018-07-16T00:17:44.783Z,101203.81
2018-07-16T00:20:13.519Z,101198.05
2018-07-16T00:22:42.260Z,101199.41
2018-07-16T00:25:11.047Z,101199.06
2018-07-16T00:27:39.879Z,101195.33
2018-07-16T00:30:08.753Z,101193.61
2018-07-16T00:32:37.473Z,101198.20
2018-07-16T00:35:06.215Z,101199.06
2018-07-16T00:37:35.025Z,101200.09
2018-07-16T00:40:03.793Z,101192.94
2018-07-16T00:42:32.588Z,101203.32
2018-07-16T00:45:01.299Z,101200.25
2018-07-16T00:47:30.121Z,101200.75
2018-07-16T00:49:58.862Z,101203.47
2018-07-16T00:52:27.587Z,101207.73
2018-07-16T00:54:56.340Z,101210.78
2018-07-16T00:57:25.131Z,101207.23
2018-07-16T00:59:53.870Z,101206.02
2018-07-16T01:02:22.641Z,101208.23
2018-07-16T01:04:51.369Z,101206.52
2018-07-16T01:07:20.113Z,101209.42
2018-07-16T01:09:48.874Z,101214.36
2018-07-16T01:12:17.580Z,101214.86
2018-07-16T01:14:46.278Z,101220.31
2018-07-16T01:17:14.976Z,101224.89
2018-07-16T01:19:43.742Z,101213.16
2018-07-16T01:22:12.477Z,101217.23
2018-07-16T01:24:41.189Z,101218.27
2018-07-16T01:27:09.881Z,101220.99
2018-07-16T01:29:38.665Z,101220.31
2018-07-16T01:32:07.434Z,101217.59
2018-07-16T01:34:36.265Z,101216.23
2018-07-16T01:37:05.071Z,101215.38
2018-07-16T01:39:33.770Z,101218.09
2018-07-16T01:42:02.500Z,101226.27
2018-07-16T01:44:31.202Z,101226.27
2018-07-16T01:46:59.888Z,101224.05
2018-07-16T01:49:28.688Z,101225.91
2018-07-16T01:51:57.451Z,101231.34
2018-07-16T01:54:26.160Z,101227.77
2018-07-16T01:56:54.861Z,101228.12
2018-07-16T01:59:23.593Z,101231.84
2018-07-16T02:01:52.388Z,101231.84
2018-07-16T02:04:21.109Z,101238.65
2018-07-16T02:06:49.844Z,101231.84
2018-07-16T02:09:18.571Z,101232.39
2018-07-16T02:11:47.323Z,101224.23
2018-07-16T02:14:16.115Z,101226.94
2018-07-16T02:16:44.870Z,101226.09
2018-07-16T02:19:13.609Z,101226.09
2018-07-16T02:21:42.362Z,101232.53
2018-07-16T02:24:11.073Z,101224.38
2018-07-16T02:26:39.794Z,101226.09
2018-07-16T02:29:08.645Z,101222.51
2018-07-16T02:31:37.333Z,101222.51
2018-07-16T02:34:06.077Z,101227.45
2018-07-16T02:36:34.786Z,101227.95
2018-07-16T02:39:03.578Z,101219.79
2018-07-16T02:41:32.343Z,101226.59
2018-07-16T02:44:01.045Z,101227.09
2018-07-16T02:46:29.757Z,101225.73
2018-07-16T02:48:58.481Z,101224.73
2018-07-16T02:51:27.185Z,101222.86
2018-07-16T02:53:55.924Z,101227.27
2018-07-16T02:56:24.678Z,101225.91
2018-07-16T02:58:53.444Z,101228.62
2018-07-16T03:01:22.161Z,101227.63
2018-07-16T03:03:50.873Z,101227.63
2018-07-16T03:06:19.574Z,101227.12
2018-07-16T03:08:48.298Z,101221.33
2018-07-16T03:11:17.037Z,101221.14
2018-07-16T03:13:45.826Z,101227.44
2018-07-16T03:16:14.729Z,101224.22
2018-07-16T03:18:43.418Z,101219.13
2018-07-16T03:21:12.133Z,101228.12
2018-07-16T03:23:40.866Z,101223.89
2018-07-16T03:26:09.585Z,101229.14
2018-07-16T03:28:38.340Z,101228.14
2018-07-16T03:31:07.293Z,101227.45
2018-07-16T03:33:36.047Z,101231.39
2018-07-16T03:36:05.701Z,101232.56
2018-07-16T03:38:34.498Z,101232.38
2018-07-16T03:41:03.257Z,101238.85
2018-07-16T03:43:31.996Z,101242.78
2018-07-16T03:46:00.873Z,101243.46
2018-07-16T03:48:29.633Z,101242.77
2018-07-16T03:50:58.370Z,101238.86
2018-07-16T03:53:27.145Z,101241.75
2018-07-16T03:55:56.114Z,101250.78
2018-07-16T03:58:24.670Z,101251.45
2018-07-16T04:00:53.502Z,101246.17
2018-07-16T04:03:22.265Z,101247.42
2018-07-16T04:05:51.063Z,101251.67
2018-07-16T04:08:19.813Z,101244.69
2018-07-16T04:10:48.573Z,101247.26
2018-07-16T04:13:17.466Z,101252.02
2018-07-16T04:15:46.157Z,101255.41
2018-07-16T04:18:17.728Z,101256.08
2018-07-16T04:20:46.601Z,101258.66
2018-07-16T04:23:15.350Z,101252.02
2018-07-16T04:25:44.094Z,101257.78
2018-07-16T04:28:13.294Z,101257.45
2018-07-16T04:30:42.165Z,101255.39
2018-07-16T04:33:11.005Z,101253.88
2018-07-16T04:35:39.710Z,101255.92
2018-07-16T04:38:08.479Z,101253.86
2018-07-16T04:40:37.214Z,101256.75
2018-07-16T04:43:06.017Z,101252.52
2018-07-16T04:45:34.778Z,101258.13
2018-07-16T04:48:03.504Z,101262.89
2018-07-16T04:50:32.241Z,101260.84
2018-07-16T04:53:01.048Z,101264.23
2018-07-16T04:55:29.831Z,101266.30
2018-07-16T04:57:58.586Z,101268.33
2018-07-16T05:00:27.286Z,101261.34
2018-07-16T05:02:56.059Z,101262.01
2018-07-16T05:05:24.797Z,101263.53
2018-07-16T05:07:53.653Z,101263.38
2018-07-16T05:10:22.385Z,101267.67
2018-07-16T05:12:51.088Z,101265.30
2018-07-16T05:15:19.856Z,101270.37
2018-07-16T05:17:48.614Z,101268.85
2018-07-16T05:20:17.383Z,101268.67
2018-07-16T05:22:46.166Z,101272.92
2018-07-16T05:25:14.985Z,101270.04
2018-07-16T05:27:43.718Z,101267.98
2018-07-16T05:30:12.579Z,101267.30
2018-07-16T05:32:41.494Z,101265.23
2018-07-16T05:35:10.135Z,101262.36
2018-07-16T05:37:38.872Z,101269.33
2018-07-16T05:40:07.725Z,101271.36
2018-07-16T05:42:36.722Z,101270.35
2018-07-16T05:45:05.601Z,101269.97
2018-07-16T05:47:34.338Z,101267.95
2018-07-16T05:50:03.187Z,101266.91
2018-07-16T05:52:31.936Z,101271.51
2018-07-16T05:55:00.836Z,101264.50
2018-07-16T05:57:29.553Z,101271.16
2018-07-16T05:59:58.381Z,101274.56
2018-07-16T06:02:27.285Z,101272.50
2018-07-16T06:04:56.123Z,101275.92
2018-07-16T06:07:24.947Z,101276.24
2018-07-16T06:09:53.713Z,101281.53
2018-07-16T06:12:22.507Z,101276.75
2018-07-16T06:14:51.291Z,101274.34
2018-07-16T06:17:20.140Z,101276.41
2018-07-16T06:19:48.967Z,101278.59
2018-07-16T06:22:17.783Z,101233.89
2018-07-16T06:24:46.551Z,101277.42
2018-07-16T06:27:15.372Z,101278.13
2018-07-16T06:29:44.213Z,101278.28
2018-07-16T06:32:12.931Z,101271.47
2018-07-16T06:34:41.629Z,101277.08
2018-07-16T06:37:10.416Z,101273.31
2018-07-16T06:39:39.256Z,101275.37
2018-07-16T06:42:08.215Z,101268.02
2018-07-16T06:44:36.968Z,101271.09
2018-07-16T06:47:05.981Z,101264.63
2018-07-16T06:49:34.761Z,101269.38
2018-07-16T06:52:03.531Z,101264.78
2018-07-16T06:54:32.338Z,101266.97
2018-07-16T06:57:01.193Z,101267.66
2018-07-16T06:59:30.260Z,101269.34
2018-07-16T07:01:59.033Z,101271.05
2018-07-16T07:04:27.806Z,101267.63
2018-07-16T07:06:56.658Z,101268.48
2018-07-16T07:09:25.445Z,101269.16
2018-07-16T07:11:54.210Z,101262.68
2018-07-16T07:14:23.080Z,101265.73
2018-07-16T07:16:51.828Z,101261.48
2018-07-16T07:19:20.567Z,101267.59
2018-07-16T07:21:49.461Z,101268.45
2018-07-16T07:24:18.169Z,101265.22
2018-07-16T07:26:46.932Z,101261.44
2018-07-16T07:29:15.672Z,101258.55
2018-07-16T07:31:44.421Z,101262.96
2018-07-16T07:34:14.052Z,101251.03
2018-07-16T07:36:43.175Z,101254.11
2018-07-16T07:39:11.921Z,101257.66
2018-07-16T07:41:40.646Z,101250.84
2018-07-16T07:44:09.415Z,101256.64
2018-07-16T07:46:38.160Z,101247.95
2018-07-16T07:49:06.960Z,101250.68
2018-07-16T07:51:35.777Z,101250.68
2018-07-16T07:54:04.555Z,101252.36
2018-07-16T07:56:33.277Z,101252.91
2018-07-16T07:59:02.051Z,101250.68
2018-07-16T08:01:30.851Z,101243.52
2018-07-16T08:03:59.662Z,101245.23
2018-07-16T08:06:28.470Z,101243.86
2018-07-16T08:08:57.233Z,101245.92
2018-07-16T08:11:26.050Z,101248.97
2018-07-16T08:13:54.887Z,101250.84
2018-07-16T08:16:23.645Z,101258.20
2018-07-16T08:18:52.521Z,101249.32
2018-07-16T08:21:21.311Z,101258.36
2018-07-16T08:23:50.119Z,101252.05
2018-07-16T08:26:18.897Z,101257.50
2018-07-16T08:28:47.642Z,101259.91
2018-07-16T08:31:16.360Z,101262.10
2018-07-16T08:33:45.285Z,101253.09
2018-07-16T08:36:14.063Z,101261.28
2018-07-16T08:38:42.869Z,101262.30
2018-07-16T08:41:11.664Z,101259.22
2018-07-16T08:43:40.498Z,101246.94
2018-07-16T08:46:09.267Z,101255.67
2018-07-16T08:48:38.048Z,101255.83
2018-07-16T08:51:07.193Z,101251.23
2018-07-16T08:53:37.445Z,101252.59
2018-07-16T08:56:06.231Z,101250.06
2018-07-16T08:58:35.051Z,101249.70
2018-07-16T09:01:03.834Z,101252.78
2018-07-16T09:03:32.749Z,101244.77
2018-07-16T09:06:05.601Z,101246.63
2018-07-16T09:08:35.788Z,101246.63
2018-07-16T09:11:04.717Z,101251.27
2018-07-16T09:13:33.802Z,101254.16
2018-07-16T09:16:02.541Z,101250.56
2018-07-16T09:18:31.259Z,101249.91
2018-07-16T09:20:59.994Z,101245.30
2018-07-16T09:23:28.737Z,101252.12
2018-07-16T09:25:57.526Z,101249.39
2018-07-16T09:28:26.406Z,101244.64
2018-07-16T09:30:55.272Z,101245.66
2018-07-16T09:33:24.086Z,101250.60
2018-07-16T09:35:52.933Z,101249.75
2018-07-16T09:38:21.814Z,101245.84
2018-07-16T09:40:50.608Z,101250.45
2018-07-16T09:43:19.362Z,101251.46
2018-07-16T09:45:48.157Z,101236.66
2018-07-16T09:48:18.122Z,101246.20
2018-07-16T09:50:46.897Z,101248.58
2018-07-16T09:53:15.647Z,101252.67
2018-07-16T09:55:44.451Z,101249.63
2018-07-16T09:58:13.255Z,101241.09
2018-07-16T10:00:47.213Z,101254.73
2018-07-16T10:03:16.000Z,101254.37
2018-07-16T10:05:44.727Z,101254.06
2018-07-16T10:08:13.518Z,101256.12
2018-07-16T10:10:42.374Z,101257.64
2018-07-16T10:13:11.176Z,101258.34
2018-07-16T10:15:39.916Z,101256.31
2018-07-16T10:18:09.506Z,101252.89
2018-07-16T10:20:38.394Z,101252.19
2018-07-16T10:23:07.252Z,101249.66
2018-07-16T10:25:36.046Z,101248.45
2018-07-16T10:28:04.812Z,101253.58
2018-07-16T10:30:33.624Z,101252.56
2018-07-16T10:33:02.630Z,101245.41
2018-07-16T10:35:31.572Z,101238.27
2018-07-16T10:38:00.353Z,101247.11
2018-07-16T10:40:59.594Z,101243.21
2018-07-16T10:43:28.394Z,101238.97
2018-07-16T10:45:57.151Z,101244.41
2018-07-16T10:48:25.973Z,101243.75
2018-07-16T10:50:54.848Z,101243.39
2018-07-16T10:53:23.660Z,101237.28
2018-07-16T10:55:52.459Z,101235.56
2018-07-16T10:58:21.254Z,101235.25
2018-07-16T11:00:50.094Z,101232.17
2018-07-16T11:03:18.923Z,101229.09
2018-07-16T11:05:47.683Z,101232.87
2018-07-16T11:08:16.491Z,101229.47
2018-07-16T11:10:45.297Z,101230.48
2018-07-16T11:13:14.082Z,101233.91
2018-07-16T11:15:42.805Z,101234.92
2018-07-16T11:18:11.696Z,101236.28
2018-07-16T11:20:40.459Z,101227.44
2018-07-16T11:23:09.205Z,101222.50
2018-07-16T11:25:37.938Z,101226.08
2018-07-16T11:28:06.706Z,101221.33
2018-07-16T11:30:35.451Z,101216.37
2018-07-16T11:33:04.335Z,101218.75
2018-07-16T11:35:33.166Z,101213.84
2018-07-16T11:38:01.885Z,101209.41
2018-07-16T11:40:30.683Z,101208.05
2018-07-16T11:42:59.427Z,101212.13
2018-07-16T11:45:28.218Z,101210.42
2018-07-16T11:47:56.983Z,101215.02
2018-07-16T11:50:25.878Z,101205.48
2018-07-16T11:52:54.639Z,101204.66
2018-07-16T11:55:23.383Z,101202.44
2018-07-16T11:57:52.347Z,101206.17
2018-07-16T12:00:21.129Z,101206.67
2018-07-16T12:02:49.854Z,101204.48
2018-07-16T12:05:18.608Z,101199.86
2018-07-16T12:07:47.412Z,101208.89
2018-07-16T12:10:16.303Z,101204.80
2018-07-16T12:12:45.216Z,101207.03
2018-07-16T12:15:13.952Z,101209.40
2018-07-16T12:17:42.755Z,101202.08
2018-07-16T12:20:11.552Z,101205.31
2018-07-16T12:22:40.330Z,101206.67
2018-07-16T12:25:09.138Z,101210.77
2018-07-16T12:27:37.961Z,101208.89
2018-07-16T12:30:07.559Z,101212.66
2018-07-16T12:32:36.325Z,101206.36
2018-07-16T12:35:05.250Z,101212.98
2018-07-16T12:37:34.000Z,101209.40
2018-07-16T12:40:02.814Z,101208.89
2018-07-16T12:42:31.566Z,101207.38
2018-07-16T12:45:00.425Z,101203.29
2018-07-16T12:47:29.192Z,101206.84
2018-07-16T12:49:57.972Z,101198.16
2018-07-16T12:52:26.832Z,101201.23
2018-07-16T12:54:55.717Z,101194.77
2018-07-16T12:57:24.705Z,101201.90
2018-07-16T12:59:53.484Z,101189.64
2018-07-16T13:02:22.403Z,101189.48
2018-07-16T13:04:51.197Z,101180.45
2018-07-16T13:07:19.962Z,101186.76
2018-07-16T13:09:48.797Z,101182.13
2018-07-16T13:12:17.628Z,101175.32
2018-07-16T13:14:46.495Z,101173.14
2018-07-16T13:17:15.376Z,101168.86
2018-07-16T13:19:44.131Z,101173.95
2018-07-16T13:22:13.026Z,101177.22
2018-07-16T13:24:41.985Z,101170.41
2018-07-16T13:27:10.789Z,101172.95
2018-07-16T13:29:39.587Z,101169.88
2018-07-16T13:32:08.443Z,101171.23
2018-07-16T13:34:37.210Z,101179.25
2018-07-16T13:37:06.073Z,101189.64
2018-07-16T13:39:34.964Z,101174.66
2018-07-16T13:42:03.878Z,101174.66
2018-07-16T13:44:32.661Z,101183.15
2018-07-16T13:47:01.470Z,101170.89
2018-07-16T13:49:30.255Z,101172.09
2018-07-16T13:51:59.053Z,101172.09
2018-07-16T13:54:27.911Z,101168.83
2018-07-16T13:56:56.750Z,101165.09
2018-07-16T13:59:25.509Z,101170.03
2018-07-16T14:01:54.331Z,101165.44
2018-07-16T14:04:29.353Z,101164.08
2018-07-16T14:06:58.139Z,101165.09
2018-07-16T14:09:26.899Z,101171.20
2018-07-16T14:11:55.632Z,101168.67
2018-07-16T14:14:24.558Z,101166.27
2018-07-16T14:16:53.438Z,101171.71
2018-07-16T14:19:22.226Z,101172.41
2018-07-16T14:21:51.037Z,101168.48
2018-07-16T14:24:20.021Z,101174.09
2018-07-16T14:26:48.967Z,101169.50
2018-07-16T14:29:17.777Z,101174.09
2018-07-16T14:31:46.546Z,101176.66
2018-07-16T14:34:15.337Z,101163.34
2018-07-16T14:36:44.207Z,101170.16
2018-07-16T14:39:12.952Z,101176.47
2018-07-16T14:41:41.827Z,101173.23
2018-07-16T14:44:10.736Z,101176.81
2018-07-16T14:46:39.540Z,101175.95
2018-07-16T14:49:08.410Z,101176.31
2018-07-16T14:51:37.199Z,101175.27
2018-07-16T14:54:05.974Z,101176.63
2018-07-16T14:56:34.827Z,101180.20
2018-07-16T14:59:03.598Z,101177.98
2018-07-16T15:01:32.420Z,101182.94
2018-07-16T15:04:01.225Z,101187.69
2018-07-16T15:06:30.152Z,101182.73
2018-07-16T15:08:59.013Z,101184.45
2018-07-16T15:11:27.767Z,101186.67
2018-07-16T15:13:56.663Z,101188.03
2018-07-16T15:16:25.520Z,101183.09
2018-07-16T15:18:54.313Z,101179.34
2018-07-16T15:21:23.192Z,101179.00
2018-07-16T15:23:51.924Z,101179.51
2018-07-16T15:26:20.703Z,101178.49
2018-07-16T15:28:49.506Z,101177.29
2018-07-16T15:31:18.344Z,101169.11
2018-07-16T15:33:47.094Z,101174.05
2018-07-16T15:36:15.917Z,101180.02
2018-07-16T15:38:45.022Z,101174.56
2018-07-16T15:41:14.245Z,101173.20
2018-07-16T15:43:43.371Z,101175.42
2018-07-16T15:46:12.201Z,101180.55
2018-07-16T15:48:41.149Z,101179.34
2018-07-16T15:51:09.897Z,101179.34
2018-07-16T15:53:39.037Z,101174.76
2018-07-16T15:56:08.480Z,101177.48
2018-07-16T15:58:37.275Z,101177.98
2018-07-16T16:01:06.245Z,101173.58
2018-07-16T16:03:35.105Z,101173.58
2018-07-16T16:06:03.975Z,101175.27
2018-07-16T16:08:32.777Z,101170.31
2018-07-16T16:11:01.494Z,101162.69
2018-07-16T16:13:30.265Z,101166.23
2018-07-16T16:15:59.088Z,101170.86
2018-07-16T16:18:27.853Z,101169.50
2018-07-16T16:20:56.591Z,101172.22
2018-07-16T16:23:25.336Z,101175.77
2018-07-16T16:25:54.136Z,101168.13
2018-07-16T16:28:23.024Z,101164.20
2018-07-16T16:30:51.835Z,101154.51
2018-07-16T16:33:20.588Z,101147.34
2018-07-16T16:35:49.391Z,101151.94
2018-07-16T16:38:18.161Z,101151.43
2018-07-16T16:40:46.970Z,101150.58
2018-07-16T16:43:15.801Z,101149.22
2018-07-16T16:45:44.630Z,101148.36
2018-07-16T16:48:13.408Z,101154.66
2018-07-16T16:50:42.259Z,101148.90
2018-07-16T16:53:11.103Z,101147.53
2018-07-16T16:55:39.877Z,101151.08
2018-07-16T16:58:08.796Z,101151.63
2018-07-16T17:00:37.547Z,101152.13
2018-07-16T17:03:06.384Z,101156.53
2018-07-16T17:05:35.233Z,101148.55
2018-07-16T17:08:04.254Z,101154.00
2018-07-16T17:10:33.083Z,101146.33
2018-07-16T17:13:01.844Z,101151.27
2018-07-16T17:15:30.752Z,101153.66
2018-07-16T17:17:59.707Z,101158.59
2018-07-16T17:20:28.454Z,101162.69
2018-07-16T17:22:57.185Z,101160.30
2018-07-16T17:25:25.972Z,101161.16
2018-07-16T17:27:54.752Z,101156.22
2018-07-16T17:30:23.640Z,101160.62
2018-07-16T17:32:52.435Z,101165.56
2018-07-16T17:35:21.197Z,101163.19
2018-07-16T17:37:50.029Z,101164.71
2018-07-16T17:40:18.936Z,101165.41
2018-07-16T17:42:47.694Z,101164.36
2018-07-16T17:45:16.493Z,101168.95
2018-07-16T17:47:45.234Z,101175.27
2018-07-16T17:50:14.057Z,101174.41
2018-07-16T17:52:42.814Z,101179.19
2018-07-16T17:55:11.544Z,101176.12
2018-07-16T17:57:40.318Z,101173.74
2018-07-16T18:00:09.089Z,101175.92
2018-07-16T18:02:38.108Z,101175.92
2018-07-16T18:05:06.915Z,101177.29
2018-07-16T18:07:36.456Z,101176.28
2018-07-16T18:10:05.713Z,101175.42
2018-07-16T18:12:34.546Z,101182.23
2018-07-16T18:15:03.399Z,101178.15
2018-07-16T18:17:32.279Z,101178.15
2018-07-16T18:20:01.222Z,101183.59
2018-07-16T18:22:29.989Z,101183.59
2018-07-16T18:24:58.808Z,101192.63
2018-07-16T18:27:27.555Z,101198.59
2018-07-16T18:29:56.296Z,101193.64
2018-07-16T18:32:25.170Z,101201.31
2018-07-16T18:34:53.960Z,101205.40
2018-07-16T18:37:22.764Z,101203.18
2018-07-16T18:39:51.514Z,101210.84
2018-07-16T18:42:20.295Z,101211.90
2018-07-16T18:44:49.004Z,101214.62
2018-07-16T18:47:17.759Z,101219.22
2018-07-16T18:49:46.603Z,101222.80
2018-07-16T18:52:15.350Z,101222.45
2018-07-16T18:54:44.257Z,101220.08
2018-07-16T18:57:13.043Z,101225.52
2018-07-16T18:59:41.793Z,101226.03
2018-07-16T19:02:10.655Z,101235.57
2018-07-16T19:04:39.418Z,101236.58
2018-07-16T19:07:08.350Z,101241.17
2018-07-16T19:09:37.124Z,101238.45
2018-07-16T19:12:05.965Z,101242.03
2018-07-16T19:14:34.769Z,101243.08
2018-07-16T19:17:03.610Z,101245.80
2018-07-16T19:19:32.583Z,101247.17
2018-07-16T19:22:01.497Z,101251.26
2018-07-16T19:24:30.398Z,101253.63
2018-07-16T19:26:59.334Z,101250.91
2018-07-16T19:29:28.323Z,101252.27
2018-07-16T19:31:57.130Z,101247.83
2018-07-16T19:34:25.910Z,101251.92
2018-07-16T19:36:54.713Z,101252.78
2018-07-16T19:39:23.488Z,101249.19
2018-07-16T19:41:52.271Z,101253.82
2018-07-16T19:44:21.139Z,101257.05
2018-07-16T19:46:49.894Z,101251.09
2018-07-16T19:49:19.029Z,101253.47
2018-07-16T19:51:47.799Z,101253.82
2018-07-16T19:54:16.625Z,101256.34
2018-07-16T19:56:45.470Z,101258.92
2018-07-16T19:59:14.345Z,101261.30
2018-07-16T20:01:43.193Z,101255.84
2018-07-16T20:04:12.032Z,101251.95
2018-07-16T20:06:40.804Z,101254.98
2018-07-16T20:09:09.584Z,101254.16
2018-07-16T20:11:38.737Z,101253.31
2018-07-16T20:14:07.535Z,101256.54
2018-07-16T20:16:39.046Z,101254.83
2018-07-16T20:19:07.939Z,101254.00
2018-07-16T20:21:36.739Z,101256.73
2018-07-16T20:24:05.608Z,101249.91
2018-07-16T20:26:34.428Z,101252.64
2018-07-16T20:29:03.261Z,101255.02
2018-07-16T20:31:32.022Z,101257.23
2018-07-16T20:34:01.043Z,101260.47
2018-07-16T20:36:29.948Z,101260.97
2018-07-16T20:38:58.817Z,101261.16
2018-07-16T20:41:27.645Z,101254.34
2018-07-16T20:43:56.497Z,101257.07
2018-07-16T20:46:25.293Z,101255.36
2018-07-16T20:48:54.050Z,101250.95
2018-07-16T20:51:22.845Z,101255.04
2018-07-16T20:53:51.699Z,101260.80
2018-07-16T20:56:20.550Z,101262.86
2018-07-16T20:58:49.460Z,101263.72
2018-07-16T21:01:19.729Z,101258.42
2018-07-16T21:03:48.982Z,101273.09
2018-07-16T21:06:17.829Z,101279.55
2018-07-16T21:08:46.766Z,101277.52
2018-07-16T21:11:15.551Z,101283.66
2018-07-16T21:13:44.306Z,101284.51
2018-07-16T21:16:13.105Z,101287.42
2018-07-16T21:18:41.867Z,101283.67
2018-07-16T21:21:10.727Z,101285.38
2018-07-16T21:23:39.641Z,101287.39
2018-07-16T21:26:08.659Z,101288.59
2018-07-16T21:28:37.513Z,101294.70
2018-07-16T21:31:06.565Z,101294.02
2018-07-16T21:33:35.387Z,101291.13
2018-07-16T21:36:04.457Z,101294.55
2018-07-16T21:38:33.341Z,101292.51
2018-07-16T21:41:02.136Z,101294.56
2018-07-16T21:43:31.062Z,101295.72
2018-07-16T21:46:00.107Z,101296.41
2018-07-16T21:48:28.895Z,101295.38
2018-07-16T21:50:57.676Z,101294.20
2018-07-16T21:53:26.441Z,101289.45
2018-07-16T21:55:57.022Z,101286.38
2018-07-16T21:58:25.891Z,101282.98
2018-07-16T22:00:55.030Z,101285.34
2018-07-16T22:03:24.032Z,101285.70
2018-07-16T22:05:53.795Z,101291.50
2018-07-16T22:08:22.632Z,101287.92
2018-07-16T22:10:51.495Z,101295.05
2018-07-16T22:13:20.270Z,101293.18
2018-07-16T22:15:49.063Z,101291.81
2018-07-16T22:18:17.889Z,101292.86
2018-07-16T22:20:46.719Z,101290.45
2018-07-16T22:23:15.562Z,101292.86
2018-07-16T22:25:44.350Z,101290.96
2018-07-16T22:28:13.137Z,101290.96
2018-07-16T22:30:41.940Z,101287.41
2018-07-16T22:33:10.743Z,101287.41
2018-07-16T22:35:39.531Z,101282.47
2018-07-16T22:38:08.274Z,101279.25
2018-07-16T22:40:37.074Z,101277.02
2018-07-16T22:43:05.886Z,101282.28
2018-07-16T22:45:34.611Z,101275.16
2018-07-16T22:48:03.375Z,101277.34
2018-07-16T22:50:33.888Z,101275.98
2018-07-16T22:53:02.694Z,101276.52
2018-07-16T22:55:31.422Z,101277.88
2018-07-16T22:58:00.165Z,101279.75
2018-07-16T23:00:28.950Z,101283.83
2018-07-16T23:02:57.742Z,101285.19
2018-07-16T23:05:26.494Z,101287.41
2018-07-16T23:07:55.298Z,101282.47
2018-07-16T23:10:24.072Z,101287.92
2018-07-16T23:12:52.845Z,101287.06
2018-07-16T23:15:21.675Z,101287.92
2018-07-16T23:17:50.429Z,101287.92
2018-07-16T23:20:19.316Z,101285.70
2018-07-16T23:22:53.674Z,101279.75
2018-07-16T23:25:22.753Z,101279.25
2018-07-16T23:27:51.538Z,101274.81
2018-07-16T23:30:20.265Z,101279.75
2018-07-16T23:32:49.097Z,101276.17
2018-07-16T23:35:18.446Z,101276.67
2018-07-16T23:37:47.506Z,101274.81
2018-07-16T23:40:16.341Z,101280.25
2018-07-16T23:42:45.139Z,101274.45
2018-07-16T23:45:13.898Z,101276.17
2018-07-16T23:47:42.611Z,101275.31
2018-07-16T23:50:11.355Z,101273.09
2018-07-16T23:52:40.646Z,101271.23
2018-07-16T23:55:09.530Z,101271.23
2018-07-16T23:57:38.263Z,101273.95
